Victory — WDF9821 — position and weather

sailwx.info

Track history (hours):
 
Tides and Currents Weather Stations Pressure Air Temp Water Temp Dewpoint Dewpoint Depression Visibility Wind Speed Wind Dir Waves Ship Positions

Victory

Owner: Guyan, George V, White Stone, VA. More information available from US FCC via Universal Licensing System and Coast Guard Vessel Documentation Center.

Last reported at 2014-Aug-31 00:33 UTC. Time now 2014-Oct-23 21:24 UTC.
Position N 39°40' W 074°06'.
Warning: this ship's position is 53 days out of date.

Length 15 m.

Type: Sailing vessel. MMSI: 367509170.

Date/timePositionNaut miles runAvg speedWind from/ knotsBaromVisibWave heightAir tempDewpointWater temp
2014-Aug-31 00:33N 39°40' W 074°06'7 5.4
2014-Aug-30 23:19N 39°45' W 074°02'54 1.9
2014-Aug-29 18:33N 40°39' W 074°03'66 2.2
2014-Aug-28 12:14N 41°13' W 072°48'3 0.2
2014-Aug-27 20:16N 41°15' W 072°45'0 0.4
2014-Aug-27 19:33N 41°15' W 072°46'5 4.7
2014-Aug-27 18:33N 41°14' W 072°39'6 5.7
2014-Aug-27 17:33N 41°14' W 072°32'6 5.8
2014-Aug-27 16:33N 41°14' W 072°24'7 7.0
2014-Aug-27 15:33N 41°15' W 072°15'7 7.2
2014-Aug-27 14:33N 41°17' W 072°06'7 7.0
2014-Aug-27 13:33N 41°18' W 071°56'2 0.2
2014-Aug-26 21:30N 41°20' W 071°55'3 3.7
2014-Aug-26 20:33N 41°18' W 071°51'5 5.1
2014-Aug-26 19:33N 41°18' W 071°45'5 5.4
2014-Aug-26 18:33N 41°19' W 071°37'5 5.3
2014-Aug-26 17:31N 41°20' W 071°30'6 6.5
2014-Aug-26 16:32N 41°21' W 071°22'9 6.5
2014-Aug-26 15:11N 41°24' W 071°11'4 6.4
2014-Aug-26 14:33N 41°25' W 071°06'6 6.4
2014-Aug-26 13:33N 41°28' W 070°58'6 6.1
2014-Aug-26 12:33N 41°31' W 070°51'6 6.2
2014-Aug-26 11:33N 41°36' W 070°46'  
Track history (hours):
 
Tides and Currents Weather Stations Pressure Air Temp Water Temp Dewpoint Dewpoint Depression Visibility Wind Speed Wind Dir Waves Ship Positions

Victory

Owner: Guyan, George V, White Stone, VA. More information available from US FCC via Universal Licensing System and Coast Guard Vessel Documentation Center.

Last reported at 2014-Aug-31 00:33 UTC. Time now 2014-Oct-23 21:24 UTC.
Position N 39°40' W 074°06'.
Warning: this ship's position is 53 days out of date.

Length 15 m.

Type: Sailing vessel. MMSI: 367509170.

Date/timePositionNaut miles runAvg speedWind from/ knotsBaromVisibWave heightAir tempDewpointWater temp
2014-Aug-31 00:33N 39°40' W 074°06'7 5.4
2014-Aug-30 23:19N 39°45' W 074°02'54 1.9
2014-Aug-29 18:33N 40°39' W 074°03'66 2.2
2014-Aug-28 12:14N 41°13' W 072°48'3 0.2
2014-Aug-27 20:16N 41°15' W 072°45'0 0.4
2014-Aug-27 19:33N 41°15' W 072°46'5 4.7
2014-Aug-27 18:33N 41°14' W 072°39'6 5.7
2014-Aug-27 17:33N 41°14' W 072°32'6 5.8
2014-Aug-27 16:33N 41°14' W 072°24'7 7.0
2014-Aug-27 15:33N 41°15' W 072°15'7 7.2
2014-Aug-27 14:33N 41°17' W 072°06'7 7.0
2014-Aug-27 13:33N 41°18' W 071°56'2 0.2
2014-Aug-26 21:30N 41°20' W 071°55'3 3.7
2014-Aug-26 20:33N 41°18' W 071°51'5 5.1
2014-Aug-26 19:33N 41°18' W 071°45'5 5.4
2014-Aug-26 18:33N 41°19' W 071°37'5 5.3
2014-Aug-26 17:31N 41°20' W 071°30'6 6.5
2014-Aug-26 16:32N 41°21' W 071°22'9 6.5
2014-Aug-26 15:11N 41°24' W 071°11'4 6.4
2014-Aug-26 14:33N 41°25' W 071°06'6 6.4
2014-Aug-26 13:33N 41°28' W 070°58'6 6.1
2014-Aug-26 12:33N 41°31' W 070°51'6 6.2
2014-Aug-26 11:33N 41°36' W 070°46'  

Dump ship's entire track history